createdAt,value
2023-04-19T00:02:11.942Z,14.55
2023-04-19T00:05:30.121Z,14.54
2023-04-19T00:08:33.846Z,14.57
2023-04-19T00:11:25.154Z,14.57
2023-04-19T00:14:28.656Z,14.41
2023-04-19T00:17:28.084Z,13.72
2023-04-19T00:21:08.016Z,13.01
2023-04-19T00:24:04.243Z,12.42
2023-04-19T00:26:57.812Z,11.99
2023-04-19T00:30:07.888Z,11.64
2023-04-19T00:33:13.154Z,11.32
2023-04-19T00:36:27.165Z,11.31
2023-04-19T00:39:40.384Z,12.09
2023-04-19T00:43:08.046Z,12.63
2023-04-19T00:46:01.949Z,12.96
2023-04-19T00:49:34.297Z,13.23
2023-04-19T00:52:56.490Z,13.45
2023-04-19T00:55:56.963Z,13.67
2023-04-19T00:59:08.863Z,13.85
2023-04-19T01:02:04.065Z,13.94
2023-04-19T01:05:23.748Z,14.00
2023-04-19T01:08:43.937Z,14.09
2023-04-19T01:11:59.806Z,13.87
2023-04-19T01:15:06.503Z,13.02
2023-04-19T01:18:16.045Z,12.35
2023-04-19T01:22:05.225Z,11.72
2023-04-19T01:25:18.257Z,11.20
2023-04-19T01:28:21.239Z,10.83
2023-04-19T01:31:28.529Z,10.74
2023-04-19T01:34:42.258Z,11.34
2023-04-19T01:38:01.235Z,11.83
2023-04-19T01:41:22.125Z,12.22
2023-04-19T01:44:52.150Z,12.30
2023-04-19T01:48:01.650Z,11.61
2023-04-19T01:51:21.898Z,11.03
2023-04-19T01:54:36.542Z,10.63
2023-04-19T01:57:57.554Z,10.55
2023-04-19T02:01:15.335Z,11.21
2023-04-19T02:04:49.608Z,11.72
2023-04-19T02:08:21.656Z,12.06
2023-04-19T02:11:38.209Z,12.38
2023-04-19T02:15:11.486Z,12.62
2023-04-19T02:18:29.110Z,12.79
2023-04-19T02:21:59.344Z,12.61
2023-04-19T02:25:24.816Z,11.79
2023-04-19T02:29:08.036Z,11.06
2023-04-19T02:32:33.832Z,10.48
2023-04-19T02:36:13.350Z,10.07
2023-04-19T02:39:42.722Z,9.72
2023-04-19T02:43:05.615Z,9.43
2023-04-19T02:46:23.305Z,9.16
2023-04-19T02:49:38.107Z,8.92
2023-04-19T02:53:18.476Z,8.71
2023-04-19T02:56:42.657Z,8.54
2023-04-19T03:00:05.919Z,8.40
2023-04-19T03:03:25.843Z,8.29
2023-04-19T03:07:12.624Z,8.19
2023-04-19T03:10:54.622Z,8.07
2023-04-19T03:14:05.604Z,7.98
2023-04-19T03:17:19.772Z,7.88
2023-04-19T03:20:35.356Z,7.82
2023-04-19T03:24:15.588Z,7.75
2023-04-19T03:27:49.718Z,7.68
2023-04-19T03:31:10.804Z,7.93
2023-04-19T03:34:36.440Z,9.17
2023-04-19T03:38:16.861Z,11.36
2023-04-19T03:41:48.334Z,11.52
2023-04-19T03:45:12.636Z,10.52
2023-04-19T03:48:25.681Z,9.78
2023-04-19T03:51:53.473Z,9.16
2023-04-19T03:55:13.106Z,8.62
2023-04-19T03:58:43.729Z,8.11
2023-04-19T04:02:23.952Z,7.66
2023-04-19T04:05:51.873Z,7.28
2023-04-19T04:09:35.715Z,6.97
2023-04-19T04:13:24.782Z,6.68
2023-04-19T04:16:55.227Z,6.42
2023-04-19T04:20:20.216Z,6.23
2023-04-19T04:23:44.107Z,6.83
2023-04-19T04:27:22.091Z,8.22
2023-04-19T04:30:43.840Z,8.81
2023-04-19T04:33:53.692Z,9.07
2023-04-19T04:36:51.163Z,9.07
2023-04-19T04:39:54.044Z,8.38
2023-04-19T04:42:40.958Z,7.79
2023-04-19T04:45:33.983Z,7.36
2023-04-19T04:48:24.529Z,7.00
2023-04-19T04:51:11.526Z,6.69
2023-04-19T04:54:17.715Z,6.41
2023-04-19T04:57:22.014Z,6.35
2023-04-19T05:00:28.887Z,6.92
2023-04-19T05:03:51.030Z,7.60
2023-04-19T05:06:56.469Z,8.14
2023-04-19T05:10:16.589Z,8.45
2023-04-19T05:13:17.618Z,8.70
2023-04-19T05:15:59.089Z,8.75
2023-04-19T05:19:17.448Z,8.08
2023-04-19T05:21:59.846Z,7.39
2023-04-19T05:24:50.439Z,6.93
2023-04-19T05:27:42.269Z,6.54
2023-04-19T05:31:00.596Z,6.38
2023-04-19T05:34:02.163Z,7.01
2023-04-19T05:37:04.526Z,7.70
2023-04-19T05:40:16.027Z,8.21
2023-04-19T05:43:27.677Z,8.67
2023-04-19T05:46:40.852Z,9.06
2023-04-19T05:49:43.529Z,9.00
2023-04-19T05:52:58.699Z,8.19
2023-04-19T05:55:38.347Z,7.67
2023-04-19T05:58:56.481Z,7.30
2023-04-19T06:02:05.264Z,7.00
2023-04-19T06:05:09.365Z,6.77
2023-04-19T06:08:13.741Z,6.84
2023-04-19T06:11:11.853Z,7.57
2023-04-19T06:14:14.547Z,8.24
2023-04-19T06:16:54.765Z,8.78
2023-04-19T06:20:07.979Z,9.29
2023-04-19T06:22:57.959Z,9.73
2023-04-19T06:25:54.707Z,9.90
2023-04-19T06:29:11.613Z,9.34
2023-04-19T06:31:59.208Z,8.72
2023-04-19T06:34:59.162Z,8.29
2023-04-19T06:38:22.292Z,7.97
2023-04-19T06:41:28.604Z,7.71
2023-04-19T06:44:25.942Z,7.53
2023-04-19T06:47:35.660Z,7.57
2023-04-19T06:50:49.329Z,8.36
2023-04-19T06:53:44.226Z,9.08
2023-04-19T06:57:10.153Z,9.62
2023-04-19T06:59:49.090Z,10.09
2023-04-19T07:02:32.817Z,10.36
2023-04-19T07:05:12.969Z,10.02
2023-04-19T07:07:58.549Z,9.59
2023-04-19T07:11:04.609Z,9.28
2023-04-19T07:14:35.785Z,8.97
2023-04-19T07:18:03.029Z,8.74
2023-04-19T07:21:13.987Z,8.57
2023-04-19T07:24:30.487Z,8.46
2023-04-19T07:27:49.065Z,8.37
2023-04-19T07:31:02.693Z,8.29
2023-04-19T07:34:34.036Z,8.18
2023-04-19T07:37:54.631Z,8.10
2023-04-19T07:41:05.482Z,8.08
2023-04-19T07:44:11.771Z,8.06
2023-04-19T07:47:37.700Z,8.26
2023-04-19T07:50:52.667Z,9.19
2023-04-19T07:54:24.529Z,10.12
2023-04-19T07:57:40.936Z,10.51
2023-04-19T08:00:40.449Z,10.19
2023-04-19T08:04:07.459Z,9.93
2023-04-19T08:07:04.336Z,9.70
2023-04-19T08:10:17.972Z,9.50
2023-04-19T08:13:32.443Z,9.29
2023-04-19T08:17:19.582Z,9.09
2023-04-19T08:20:11.174Z,8.91
2023-04-19T08:23:41.215Z,8.82
2023-04-19T08:27:13.403Z,8.69
2023-04-19T08:30:18.738Z,8.58
2023-04-19T08:33:40.889Z,8.49
2023-04-19T08:37:04.386Z,8.38
2023-04-19T08:40:34.618Z,8.55
2023-04-19T08:44:03.854Z,9.39
2023-04-19T08:47:26.993Z,10.03
2023-04-19T08:51:08.834Z,10.53
2023-04-19T08:54:32.040Z,10.63
2023-04-19T08:58:01.669Z,10.01
2023-04-19T09:01:36.016Z,9.42
2023-04-19T09:05:14.565Z,9.00
2023-04-19T09:08:56.540Z,8.93
2023-04-19T09:12:31.878Z,9.58
2023-04-19T09:16:00.078Z,10.06
2023-04-19T09:19:36.829Z,10.39
2023-04-19T09:23:25.799Z,10.62
2023-04-19T09:27:03.405Z,10.78
2023-04-19T09:30:55.132Z,10.93
2023-04-19T09:34:31.085Z,11.07
2023-04-19T09:38:20.204Z,11.20
2023-04-19T09:41:52.537Z,11.33
2023-04-19T09:45:41.729Z,11.39
2023-04-19T09:49:45.600Z,11.49
2023-04-19T09:53:29.665Z,11.48
2023-04-19T09:57:18.766Z,11.53
2023-04-19T10:01:13.296Z,11.64
2023-04-19T10:05:19.891Z,11.69
2023-04-19T10:09:03.314Z,11.79
2023-04-19T10:13:11.042Z,11.55
2023-04-19T10:16:52.756Z,10.58
2023-04-19T10:20:44.931Z,10.37
2023-04-19T10:24:29.043Z,11.02
2023-04-19T10:28:18.117Z,11.43
2023-04-19T10:32:02.321Z,11.92
2023-04-19T10:35:51.477Z,12.49
2023-04-19T10:39:40.604Z,12.63
2023-04-19T10:43:28.331Z,12.66
2023-04-19T10:47:23.674Z,12.73
2023-04-19T11:20:38.197Z,11.84
2023-04-19T11:24:03.508Z,10.87
2023-04-19T11:27:12.434Z,9.84
2023-04-19T11:30:26.996Z,9.40
2023-04-19T11:33:31.516Z,9.79
2023-04-19T11:36:37.370Z,10.11
2023-04-19T11:39:47.513Z,10.31
2023-04-19T11:43:04.902Z,10.48
2023-04-19T11:46:13.644Z,10.65
2023-04-19T11:49:51.709Z,10.77
2023-04-19T11:53:15.279Z,10.99
2023-04-19T11:56:41.598Z,11.24
2023-04-19T12:00:07.155Z,11.45
2023-04-19T12:03:27.853Z,11.71
2023-04-19T12:06:50.256Z,11.89
2023-04-19T12:09:47.715Z,11.89
2023-04-19T12:13:04.321Z,12.00
2023-04-19T12:16:33.645Z,12.12
2023-04-19T12:19:28.731Z,12.20
2023-04-19T12:22:31.645Z,12.23
2023-04-19T12:25:53.949Z,12.32
2023-04-19T12:28:59.125Z,12.38
2023-04-19T12:32:05.952Z,12.16
2023-04-19T12:35:00.158Z,11.33
2023-04-19T12:38:05.209Z,10.60
2023-04-19T12:41:26.930Z,10.01
2023-04-19T12:44:27.150Z,9.78
2023-04-19T12:47:35.199Z,10.25
2023-04-19T12:50:52.771Z,10.60
2023-04-19T12:54:21.467Z,10.79
2023-04-19T12:57:35.610Z,10.94
2023-04-19T13:00:48.225Z,11.06
2023-04-19T13:03:48.797Z,11.14
2023-04-19T13:06:56.662Z,11.22
2023-04-19T13:10:05.724Z,11.30
2023-04-19T13:13:29.369Z,11.40
2023-04-19T13:16:40.448Z,11.45
2023-04-19T13:20:12.200Z,11.49
2023-04-19T13:23:23.404Z,11.55
2023-04-19T13:26:47.929Z,11.46
2023-04-19T13:29:54.657Z,11.52
2023-04-19T13:33:02.909Z,11.53
2023-04-19T13:36:15.169Z,11.52
2023-04-19T13:39:22.466Z,11.54
2023-04-19T13:42:46.954Z,11.66
2023-04-19T13:46:13.126Z,11.76
2023-04-19T13:49:44.788Z,11.91
2023-04-19T13:52:55.056Z,12.01
2023-04-19T13:55:57.376Z,12.05
2023-04-19T13:59:46.552Z,12.13
2023-04-19T14:03:03.026Z,12.13
2023-04-19T14:06:30.694Z,12.11
2023-04-19T14:09:45.999Z,12.04
2023-04-19T14:12:52.569Z,12.02
2023-04-19T14:16:25.852Z,12.04
2023-04-19T14:19:37.003Z,12.10
2023-04-19T14:23:08.504Z,12.18
2023-04-19T14:26:56.828Z,12.21
2023-04-19T14:30:10.093Z,12.36
2023-04-19T14:33:13.531Z,12.54
2023-04-19T14:36:38.184Z,12.44
2023-04-19T14:39:53.260Z,11.55
2023-04-19T14:43:09.041Z,10.78
2023-04-19T14:46:36.087Z,10.21
2023-04-19T14:49:37.845Z,10.07
2023-04-19T14:53:09.996Z,10.65
2023-04-19T14:56:32.153Z,11.13
2023-04-19T15:00:01.333Z,11.51
2023-04-19T15:03:28.506Z,11.88
2023-04-19T15:06:31.087Z,12.35
2023-04-19T15:09:40.627Z,12.72
2023-04-19T15:12:47.303Z,12.99
2023-04-19T15:15:43.285Z,13.31
2023-04-19T15:18:43.551Z,13.41
2023-04-19T15:21:55.266Z,12.84
2023-04-19T15:24:58.032Z,12.14
2023-04-19T15:28:05.546Z,11.58
2023-04-19T15:31:32.988Z,11.08
2023-04-19T15:34:37.406Z,10.50
2023-04-19T15:37:41.319Z,10.27
2023-04-19T15:41:23.115Z,10.84
2023-04-19T15:44:49.144Z,11.40
2023-04-19T15:48:08.570Z,11.75
2023-04-19T15:51:09.048Z,12.04
2023-04-19T15:54:12.240Z,12.27
2023-04-19T15:57:09.390Z,12.44
2023-04-19T16:00:09.831Z,12.57
2023-04-19T16:03:24.058Z,12.68
2023-04-19T16:06:23.298Z,12.49
2023-04-19T16:09:29.502Z,11.71
2023-04-19T16:12:31.505Z,11.05
2023-04-19T16:15:43.094Z,10.45
2023-04-19T16:18:35.843Z,9.89
2023-04-19T16:21:42.218Z,9.72
2023-04-19T16:25:17.068Z,10.34
2023-04-19T16:28:18.593Z,10.83
2023-04-19T16:31:23.022Z,11.15
2023-04-19T16:34:19.966Z,11.41
2023-04-19T16:37:16.307Z,11.63
2023-04-19T16:40:25.228Z,11.84
2023-04-19T16:43:16.446Z,12.02
2023-04-19T16:46:24.284Z,12.18
2023-04-19T16:49:25.687Z,12.29
2023-04-19T16:52:31.651Z,12.18
2023-04-19T16:55:50.810Z,11.37
2023-04-19T16:58:56.074Z,10.68
2023-04-19T17:02:07.652Z,10.20
2023-04-19T17:05:14.519Z,10.01
2023-04-19T17:08:32.155Z,10.48
2023-04-19T17:11:41.082Z,10.94
2023-04-19T17:15:01.377Z,11.22
2023-04-19T17:18:02.526Z,11.44
2023-04-19T17:21:16.189Z,11.68
2023-04-19T17:24:49.456Z,11.88
2023-04-19T17:28:14.561Z,12.05
2023-04-19T17:31:28.352Z,12.19
2023-04-19T17:34:59.960Z,12.32
2023-04-19T17:38:11.505Z,12.40
2023-04-19T17:41:19.862Z,12.51
2023-04-19T17:44:32.868Z,12.62
2023-04-19T17:47:29.554Z,12.37
2023-04-19T17:50:27.480Z,11.61
2023-04-19T17:53:36.526Z,10.91
2023-04-19T17:56:43.407Z,10.25
2023-04-19T18:00:22.679Z,9.99
2023-04-19T18:03:43.709Z,10.49
2023-04-19T18:06:56.582Z,10.83
2023-04-19T18:09:44.305Z,11.05
2023-04-19T18:13:09.624Z,11.22
2023-04-19T18:16:05.179Z,11.42
2023-04-19T18:19:19.609Z,11.60
2023-04-19T18:22:35.167Z,11.73
2023-04-19T18:25:52.908Z,11.81
2023-04-19T18:29:19.347Z,11.86
2023-04-19T18:32:28.899Z,11.96
2023-04-19T18:35:54.704Z,12.04
2023-04-19T18:39:11.413Z,12.11
2023-04-19T18:42:28.676Z,12.20
2023-04-19T18:45:31.518Z,12.22
2023-04-19T18:48:46.382Z,12.26
2023-04-19T18:51:38.212Z,12.28
2023-04-19T18:55:09.663Z,12.22
2023-04-19T18:58:19.106Z,12.39
2023-04-19T19:01:32.487Z,12.52
2023-04-19T19:04:52.255Z,12.60
2023-04-19T19:08:11.207Z,12.56
2023-04-19T19:11:55.152Z,12.24
2023-04-19T19:15:02.633Z,11.27
2023-04-19T19:18:14.793Z,10.55
2023-04-19T19:21:13.415Z,10.17
2023-04-19T19:24:36.375Z,10.62
2023-04-19T19:28:06.488Z,10.96
2023-04-19T19:31:44.474Z,11.24
2023-04-19T19:35:00.658Z,11.45
2023-04-19T19:38:23.760Z,11.59
2023-04-19T19:44:30.354Z,11.82
2023-04-19T19:47:45.393Z,11.92
2023-04-19T19:53:49.668Z,12.09
2023-04-19T19:57:18.988Z,12.17
2023-04-19T20:00:45.156Z,12.18
2023-04-19T20:03:44.342Z,12.13
2023-04-19T20:10:14.957Z,11.80
2023-04-19T20:13:03.702Z,10.86
2023-04-19T20:16:35.586Z,10.06
2023-04-19T20:19:47.675Z,9.28
2023-04-19T20:23:36.837Z,8.92
2023-04-19T20:26:48.937Z,9.38
2023-04-19T20:30:22.791Z,9.65
2023-04-19T20:33:32.291Z,9.68
2023-04-19T20:37:07.324Z,9.78
2023-04-19T20:40:28.442Z,9.88
2023-04-19T20:44:02.575Z,9.92
2023-04-19T20:47:43.265Z,9.91
2023-04-19T20:50:49.089Z,9.88
2023-04-19T20:54:10.201Z,9.85
2023-04-19T20:57:40.836Z,9.82
2023-04-19T21:01:29.934Z,9.76
2023-04-19T21:04:59.572Z,9.72
2023-04-19T21:08:47.470Z,9.64
2023-04-19T21:12:17.385Z,9.61
2023-04-19T21:15:53.080Z,9.54
2023-04-19T21:19:12.403Z,9.44
2023-04-19T21:22:40.918Z,9.36
2023-04-19T21:26:16.034Z,9.29
2023-04-19T21:30:05.210Z,9.24
2023-04-19T21:33:36.867Z,9.21
2023-04-19T21:37:24.605Z,9.18
2023-04-19T21:41:03.142Z,9.17
2023-04-19T21:44:45.227Z,9.19
2023-04-19T21:48:24.294Z,9.19
2023-04-19T21:52:02.173Z,9.23
2023-04-19T21:55:43.692Z,9.28
2023-04-19T21:59:32.776Z,9.32
2023-04-19T22:03:11.897Z,9.32
2023-04-19T22:06:59.287Z,9.30
2023-04-19T22:10:42.934Z,9.21
2023-04-19T22:14:04.058Z,9.17
2023-04-19T22:17:52.821Z,9.20
2023-04-19T22:21:32.253Z,9.26
2023-04-19T22:25:04.015Z,9.33
2023-04-19T22:28:45.573Z,9.38
2023-04-19T22:32:28.557Z,9.41
2023-04-19T22:35:56.369Z,9.49
2023-04-19T22:39:24.995Z,9.56
2023-04-19T22:43:04.225Z,9.58
2023-04-19T22:46:29.212Z,9.55
2023-04-19T22:50:17.569Z,9.51
2023-04-19T22:53:56.786Z,9.59
2023-04-19T22:57:37.374Z,9.70
2023-04-19T23:01:14.079Z,9.79
2023-04-19T23:04:59.781Z,9.85
2023-04-19T23:08:38.777Z,9.85
2023-04-19T23:12:27.895Z,9.83
2023-04-19T23:16:05.657Z,9.80
2023-04-19T23:19:25.640Z,9.81
2023-04-19T23:23:15.100Z,9.78
2023-04-19T23:27:03.053Z,9.72
2023-04-19T23:30:42.198Z,9.67
2023-04-19T23:34:19.801Z,9.55
2023-04-19T23:38:07.629Z,9.50
2023-04-19T23:41:27.320Z,9.53
2023-04-19T23:44:59.316Z,9.65
2023-04-19T23:48:41.279Z,9.73
2023-04-19T23:52:22.908Z,9.78
2023-04-19T23:56:04.566Z,9.82
2023-04-19T23:59:34.959Z,9.87
